Climatologie pour Saint-Brevin les Pins
Jour • Résumé pour mai 1, 2017 Système :  Métrique    Anglais   Mixte
« - 1 jour
+ 1 jour »
Jour Semaine Mois Année Personnalisé
  Maximum : Minimum : Moyenne :
Température sous abri : 14.6 °C 8.2 °C 11.2 °C
Point de rosée : 10.5 °C 5.3 °C 8 °C
Humidité : 91 % 65 % 81 %
Vitesse du vent : 33.8 km/h 0.0 km/h 12.6 km/h
Rafale : 43.4 km/h - -
Direction :- - West
Pression : 1013.8 hPa 1003.9 hPa -
Précipitations : 1.8 mm    
Historical Graphs
 
 
Tableau de données pour mai 1, 2017
Heure Tempé Pt rosée Pression Vent Vitesse Rafale Humidité Taux pluie (/hr) Soleil
00:00 8.7 °C 7.3 °C 1003.9 hPa West 12.9 km/h 32.2 km/h 91 % 0.5 mm 0 W/m2
00:10 8.9 °C 7.4 °C 1003.9 hPa NW 17.7 km/h 29.0 km/h 90 % 0.0 mm 0 W/m2
00:15 9.1 °C 7.5 °C 1003.9 hPa WSW 12.9 km/h 25.7 km/h 90 % 0.0 mm 0 W/m2
00:20 9.1 °C 7.5 °C 1003.9 hPa West 17.7 km/h 24.1 km/h 90 % 0.0 mm 0 W/m2
00:25 9.3 °C 7.7 °C 1004.3 hPa WNW 19.3 km/h 27.4 km/h 90 % 0.0 mm 0 W/m2
00:30 9.3 °C 7.4 °C 1004.3 hPa WNW 11.3 km/h 27.4 km/h 88 % 0.0 mm 0 W/m2
00:35 9.3 °C 7.3 °C 1004.3 hPa WNW 19.3 km/h 30.6 km/h 87 % 0.0 mm 0 W/m2
00:40 9.4 °C 7.0 °C 1004.3 hPa NW 12.9 km/h 30.6 km/h 85 % 0.0 mm 0 W/m2
00:45 9.3 °C 7.1 °C 1004.6 hPa West 16.1 km/h 29.0 km/h 86 % 0.0 mm 0 W/m2
00:50 9.3 °C 7.1 °C 1004.6 hPa WNW 19.3 km/h 33.8 km/h 86 % 0.0 mm 0 W/m2
00:55 9.4 °C 7.2 °C 1004.6 hPa West 9.7 km/h 33.8 km/h 86 % 0.0 mm 0 W/m2
01:00 9.6 °C 7.3 °C 1004.6 hPa WNW 9.7 km/h 32.2 km/h 86 % 0.0 mm 0 W/m2
01:10 9.7 °C 7.3 °C 1005.0 hPa WNW 12.9 km/h 25.7 km/h 85 % 0.0 mm 0 W/m2
01:15 9.8 °C 7.5 °C 1005.0 hPa WNW 11.3 km/h 25.7 km/h 86 % 0.0 mm 0 W/m2
01:20 9.7 °C 7.5 °C 1005.0 hPa WSW 8.0 km/h 30.6 km/h 86 % 0.3 mm 0 W/m2
01:25 9.2 °C 6.9 °C 1005.0 hPa WNW 20.9 km/h 30.6 km/h 86 % 0.5 mm 0 W/m2
01:30 8.9 °C 7.0 °C 1005.0 hPa WNW 9.7 km/h 27.4 km/h 88 % 0.5 mm 0 W/m2
01:35 8.8 °C 7.1 °C 1005.3 hPa WNW 12.9 km/h 25.7 km/h 89 % 0.5 mm 0 W/m2
01:40 8.9 °C 7.2 °C 1005.3 hPa West 6.4 km/h 25.7 km/h 89 % 0.5 mm 0 W/m2
01:45 9.0 °C 7.4 °C 1005.3 hPa WNW 14.5 km/h 25.7 km/h 90 % 0.5 mm 0 W/m2
01:50 9.1 °C 7.3 °C 1005.3 hPa WNW 17.7 km/h 24.1 km/h 89 % 0.5 mm 0 W/m2
01:55 9.1 °C 7.3 °C 1005.3 hPa WNW 9.7 km/h 27.4 km/h 89 % 0.5 mm 0 W/m2
02:00 9.0 °C 7.3 °C 1005.6 hPa WNW 9.7 km/h 27.4 km/h 89 % 0.5 mm 0 W/m2
02:05 9.0 °C 7.3 °C 1005.6 hPa WNW 16.1 km/h 22.5 km/h 89 % 0.5 mm 0 W/m2
02:10 9.0 °C 7.1 °C 1005.6 hPa West 14.5 km/h 24.1 km/h 88 % 0.5 mm 0 W/m2
02:15 9.1 °C 7.0 °C 1006.0 hPa WNW 19.3 km/h 29.0 km/h 87 % 0.5 mm 0 W/m2
02:20 9.1 °C 6.9 °C 1006.0 hPa NW 8.0 km/h 29.0 km/h 86 % 0.5 mm 0 W/m2
02:25 9.0 °C 6.8 °C 1006.0 hPa NW 9.7 km/h 22.5 km/h 86 % 0.3 mm 0 W/m2
02:30 9.0 °C 6.8 °C 1006.0 hPa West 6.4 km/h 20.9 km/h 86 % 0.0 mm 0 W/m2
02:35 9.1 °C 6.7 °C 1006.3 hPa WSW 12.9 km/h 25.7 km/h 85 % 0.0 mm 0 W/m2
02:40 9.2 °C 6.6 °C 1006.3 hPa WNW 14.5 km/h 25.7 km/h 84 % 0.0 mm 0 W/m2
02:45 9.2 °C 6.8 °C 1006.7 hPa WNW 12.9 km/h 30.6 km/h 85 % 0.3 mm 0 W/m2
02:50 9.0 °C 7.0 °C 1006.3 hPa West 6.4 km/h 35.4 km/h 87 % 0.5 mm 0 W/m2
02:55 8.7 °C 6.8 °C 1006.3 hPa NW 12.9 km/h 35.4 km/h 88 % 0.5 mm 0 W/m2
03:00 8.6 °C 6.8 °C 1006.7 hPa WNW 11.3 km/h 32.2 km/h 89 % 0.5 mm 0 W/m2
03:05 8.5 °C 6.8 °C 1006.7 hPa WNW 12.9 km/h 33.8 km/h 89 % 0.8 mm 0 W/m2
03:10 8.4 °C 6.6 °C 1006.7 hPa WNW 17.7 km/h 33.8 km/h 88 % 0.8 mm 0 W/m2
03:15 8.3 °C 6.5 °C 1006.7 hPa WNW 11.3 km/h 33.8 km/h 88 % 0.8 mm 0 W/m2
03:20 8.2 °C 6.4 °C 1007.0 hPa NW 16.1 km/h 27.4 km/h 88 % 0.8 mm 0 W/m2
03:25 8.2 °C 6.3 °C 1007.0 hPa NW 9.7 km/h 27.4 km/h 88 % 0.8 mm 0 W/m2
03:30 8.2 °C 6.3 °C 1007.0 hPa NW 12.9 km/h 20.9 km/h 88 % 0.8 mm 0 W/m2
03:40 8.3 °C 6.3 °C 1007.0 hPa NW 14.5 km/h 25.7 km/h 87 % 0.8 mm 0 W/m2
03:45 8.4 °C 6.2 °C 1007.0 hPa WNW 14.5 km/h 22.5 km/h 86 % 0.5 mm 0 W/m2
03:50 8.4 °C 6.2 °C 1007.3 hPa West 16.1 km/h 22.5 km/h 86 % 0.3 mm 0 W/m2
03:55 8.6 °C 6.5 °C 1007.3 hPa West 11.3 km/h 22.5 km/h 87 % 0.3 mm 0 W/m2
04:00 8.7 °C 6.6 °C 1007.3 hPa WNW 9.7 km/h 24.1 km/h 87 % 0.3 mm 0 W/m2
04:05 8.8 °C 6.6 °C 1007.3 hPa WNW 9.7 km/h 25.7 km/h 86 % 0.0 mm 0 W/m2
04:10 8.9 °C 6.5 °C 1007.3 hPa WNW 11.3 km/h 25.7 km/h 85 % 0.0 mm 0 W/m2
04:15 9.0 °C 6.1 °C 1007.7 hPa West 8.0 km/h 32.2 km/h 82 % 0.0 mm 0 W/m2
04:20 9.2 °C 5.9 °C 1007.7 hPa WNW 19.3 km/h 32.2 km/h 80 % 0.0 mm 0 W/m2
04:25 9.3 °C 5.7 °C 1007.7 hPa WNW 29.0 km/h 35.4 km/h 78 % 0.0 mm 0 W/m2
04:30 9.3 °C 5.8 °C 1007.7 hPa WNW 11.3 km/h 35.4 km/h 79 % 0.0 mm 0 W/m2
04:35 9.3 °C 5.9 °C 1007.7 hPa WNW 22.5 km/h 29.0 km/h 79 % 0.0 mm 0 W/m2
04:40 9.4 °C 6.0 °C 1008.0 hPa NNW 11.3 km/h 29.0 km/h 79 % 0.0 mm 0 W/m2
04:45 9.5 °C 6.0 °C 1008.0 hPa WNW 9.7 km/h 29.0 km/h 79 % 0.0 mm 0 W/m2
04:50 9.6 °C 5.9 °C 1008.0 hPa WNW 19.3 km/h 33.8 km/h 78 % 0.0 mm 0 W/m2
04:55 9.7 °C 6.0 °C 1008.0 hPa WNW 11.3 km/h 33.8 km/h 78 % 0.0 mm 0 W/m2
05:00 9.6 °C 6.1 °C 1008.0 hPa WNW 11.3 km/h 30.6 km/h 79 % 0.0 mm 0 W/m2
05:05 9.5 °C 6.2 °C 1008.0 hPa WNW 14.5 km/h 27.4 km/h 80 % 0.0 mm 0 W/m2
05:10 9.6 °C 6.3 °C 1008.4 hPa West 8.0 km/h 27.4 km/h 80 % 0.0 mm 0 W/m2
05:15 9.6 °C 6.3 °C 1008.4 hPa West 14.5 km/h 19.3 km/h 80 % 0.0 mm 0 W/m2
05:20 9.4 °C 6.3 °C 1008.4 hPa NW 17.7 km/h 19.3 km/h 81 % 0.0 mm 0 W/m2
05:25 9.3 °C 6.2 °C 1008.4 hPa WNW 8.0 km/h 24.1 km/h 81 % 0.0 mm 0 W/m2
05:30 9.4 °C 6.2 °C 1008.4 hPa West 20.9 km/h 30.6 km/h 80 % 0.0 mm 0 W/m2
05:35 9.7 °C 6.3 °C 1008.4 hPa NW 16.1 km/h 30.6 km/h 79 % 0.0 mm 0 W/m2
05:40 9.8 °C 6.4 °C 1008.4 hPa WNW 9.7 km/h 27.4 km/h 79 % 0.0 mm 0 W/m2
05:45 9.7 °C 5.9 °C 1008.7 hPa West 11.3 km/h 27.4 km/h 77 % 0.0 mm 0 W/m2
05:50 9.5 °C 5.3 °C 1008.7 hPa NW 9.7 km/h 29.0 km/h 75 % 0.0 mm 0 W/m2
05:55 9.7 °C 5.6 °C 1008.7 hPa WNW 19.3 km/h 29.0 km/h 76 % 0.0 mm 0 W/m2
06:00 9.7 °C 5.7 °C 1008.7 hPa West 11.3 km/h 30.6 km/h 76 % 0.0 mm 0 W/m2
06:05 9.9 °C 6.0 °C 1009.0 hPa WNW 8.0 km/h 30.6 km/h 77 % 0.0 mm 0 W/m2
06:10 9.9 °C 6.2 °C 1008.7 hPa West 14.5 km/h 30.6 km/h 78 % 0.0 mm 0 W/m2
06:15 9.9 °C 6.3 °C 1009.0 hPa WNW 16.1 km/h 29.0 km/h 78 % 0.0 mm 0 W/m2
06:20 10.0 °C 6.2 °C 1009.0 hPa West 17.7 km/h 32.2 km/h 77 % 0.0 mm 0 W/m2
06:25 10.1 °C 6.4 °C 1009.0 hPa NW 20.9 km/h 32.2 km/h 78 % 0.0 mm 0 W/m2
06:30 9.7 °C 6.3 °C 1009.0 hPa NW 14.5 km/h 30.6 km/h 79 % 0.0 mm 0 W/m2
06:40 9.2 °C 6.1 °C 1009.4 hPa WNW 9.7 km/h 24.1 km/h 81 % 0.0 mm 0 W/m2
06:45 9.1 °C 6.1 °C 1009.4 hPa WNW 12.9 km/h 22.5 km/h 82 % 0.0 mm 0 W/m2
06:50 9.0 °C 6.3 °C 1009.4 hPa West 11.3 km/h 19.3 km/h 83 % 0.0 mm 0 W/m2
06:55 8.9 °C 6.2 °C 1009.4 hPa West 4.8 km/h 17.7 km/h 83 % 0.0 mm 0 W/m2
07:00 8.9 °C 6.4 °C 1009.4 hPa West 9.7 km/h 22.5 km/h 84 % 0.0 mm 5 W/m2
07:05 9.2 °C 6.7 °C 1009.4 hPa NW 14.5 km/h 22.5 km/h 84 % 0.0 mm 7 W/m2
07:10 9.5 °C 6.4 °C 1009.7 hPa North 20.9 km/h 27.4 km/h 81 % 0.0 mm 12 W/m2
07:15 9.8 °C 6.3 °C 1009.7 hPa WNW 12.9 km/h 43.4 km/h 79 % 0.0 mm 12 W/m2
07:20 9.7 °C 5.8 °C 1009.7 hPa NW 17.7 km/h 43.4 km/h 77 % 0.0 mm 12 W/m2
07:25 9.2 °C 5.5 °C 1009.7 hPa NW 14.5 km/h 33.8 km/h 78 % 0.0 mm 16 W/m2
07:30 8.9 °C 5.6 °C 1009.7 hPa West 12.9 km/h 29.0 km/h 80 % 0.0 mm 21 W/m2
07:40 8.9 °C 5.9 °C 1010.0 hPa WNW 3.2 km/h 24.1 km/h 81 % 0.0 mm 32 W/m2
07:45 9.1 °C 6.0 °C 1010.0 hPa NW 6.4 km/h 27.4 km/h 81 % 0.0 mm 37 W/m2
07:50 9.5 °C 6.0 °C 1010.4 hPa WNW 16.1 km/h 27.4 km/h 79 % 0.0 mm 39 W/m2
07:55 9.8 °C 6.0 °C 1010.4 hPa West 12.9 km/h 25.7 km/h 77 % 0.0 mm 42 W/m2
08:00 10.2 °C 6.3 °C 1010.4 hPa West 20.9 km/h 32.2 km/h 77 % 0.0 mm 58 W/m2
08:05 10.4 °C 6.3 °C 1010.4 hPa WNW 8.0 km/h 32.2 km/h 76 % 0.0 mm 102 W/m2
08:10 10.5 °C 6.1 °C 1010.7 hPa NW 22.5 km/h 35.4 km/h 74 % 0.0 mm 44 W/m2
08:15 9.7 °C 5.8 °C 1010.7 hPa WNW 8.0 km/h 35.4 km/h 77 % 0.0 mm 63 W/m2
08:20 9.4 °C 5.9 °C 1010.7 hPa NW 12.9 km/h 29.0 km/h 79 % 0.0 mm 47 W/m2
08:25 9.5 °C 6.0 °C 1010.7 hPa WNW 14.5 km/h 29.0 km/h 79 % 0.0 mm 42 W/m2
08:30 9.4 °C 6.2 °C 1011.1 hPa NW 6.4 km/h 29.0 km/h 80 % 0.0 mm 37 W/m2
08:40 9.7 °C 6.6 °C 1011.1 hPa WNW 14.5 km/h 20.9 km/h 81 % 0.0 mm 246 W/m2
08:45 10.3 °C 7.0 °C 1011.1 hPa WNW 8.0 km/h 20.9 km/h 80 % 0.0 mm 279 W/m2
08:50 10.6 °C 7.1 °C 1011.1 hPa NNW 8.0 km/h 19.3 km/h 79 % 0.0 mm 144 W/m2
08:55 10.6 °C 7.1 °C 1011.1 hPa WNW 8.0 km/h 19.3 km/h 79 % 0.0 mm 279 W/m2
09:00 10.8 °C 7.3 °C 1011.1 hPa WNW 8.0 km/h 17.7 km/h 79 % 0.0 mm 302 W/m2
09:05 11.2 °C 7.5 °C 1011.1 hPa WNW 4.8 km/h 16.1 km/h 78 % 0.0 mm 336 W/m2
09:10 11.4 °C 7.1 °C 1011.4 hPa West 20.9 km/h 29.0 km/h 75 % 0.0 mm 353 W/m2
09:15 11.6 °C 7.1 °C 1011.4 hPa West 12.9 km/h 29.0 km/h 74 % 0.0 mm 403 W/m2
09:20 11.9 °C 6.6 °C 1011.4 hPa West 11.3 km/h 35.4 km/h 70 % 0.0 mm 520 W/m2
09:25 11.8 °C 6.7 °C 1011.4 hPa NW 9.7 km/h 35.4 km/h 71 % 0.0 mm 141 W/m2
09:30 11.1 °C 6.5 °C 1011.7 hPa WNW 4.8 km/h 32.2 km/h 73 % 0.0 mm 292 W/m2
09:40 11.6 °C 6.3 °C 1011.7 hPa NW 11.3 km/h 27.4 km/h 70 % 0.0 mm 438 W/m2
09:45 11.9 °C 6.6 °C 1011.7 hPa WNW 9.7 km/h 27.4 km/h 70 % 0.0 mm 450 W/m2
09:50 12.1 °C 6.7 °C 1011.7 hPa West 6.4 km/h 27.4 km/h 70 % 0.0 mm 461 W/m2
09:55 12.3 °C 7.2 °C 1012.1 hPa West 14.5 km/h 25.7 km/h 71 % 0.0 mm 599 W/m2
10:00 12.0 °C 6.9 °C 1012.1 hPa SW 12.9 km/h 32.2 km/h 71 % 0.0 mm 100 W/m2
10:10 11.7 °C 6.8 °C 1012.1 hPa WSW 14.5 km/h 30.6 km/h 72 % 0.0 mm 529 W/m2
10:15 12.1 °C 7.4 °C 1012.1 hPa WSW 6.4 km/h 30.6 km/h 73 % 0.0 mm 548 W/m2
10:20 12.4 °C 7.5 °C 1012.1 hPa WNW 14.5 km/h 32.2 km/h 72 % 0.0 mm 559 W/m2
10:25 12.3 °C 7.6 °C 1012.1 hPa West 16.1 km/h 35.4 km/h 73 % 0.0 mm 559 W/m2
10:30 12.6 °C 8.1 °C 1012.1 hPa WSW 9.7 km/h 35.4 km/h 74 % 0.0 mm 570 W/m2
10:35 12.9 °C 8.4 °C 1012.1 hPa WNW 8.0 km/h 25.7 km/h 74 % 0.0 mm 585 W/m2
10:40 13.1 °C 7.9 °C 1012.1 hPa WSW 4.8 km/h 25.7 km/h 71 % 0.0 mm 601 W/m2
10:45 12.9 °C 6.9 °C 1012.1 hPa WNW 12.9 km/h 33.8 km/h 67 % 0.0 mm 615 W/m2
10:50 13.1 °C 7.5 °C 1012.1 hPa West 11.3 km/h 33.8 km/h 69 % 0.0 mm 624 W/m2
10:55 12.9 °C 7.4 °C 1012.4 hPa West 9.7 km/h 35.4 km/h 69 % 0.0 mm 638 W/m2
11:00 13.0 °C 6.8 °C 1012.4 hPa West 22.5 km/h 35.4 km/h 66 % 0.0 mm 652 W/m2
11:05 13.3 °C 7.5 °C 1012.4 hPa WNW 12.9 km/h 29.0 km/h 68 % 0.0 mm 661 W/m2
11:10 13.6 °C 7.8 °C 1012.4 hPa West 22.5 km/h 29.0 km/h 68 % 0.0 mm 673 W/m2
11:15 13.5 °C 7.5 °C 1012.4 hPa West 19.3 km/h 33.8 km/h 67 % 0.0 mm 686 W/m2
11:25 13.9 °C 7.9 °C 1012.4 hPa WNW 12.9 km/h 25.7 km/h 67 % 0.0 mm 701 W/m2
11:30 13.6 °C 7.8 °C 1012.4 hPa West 16.1 km/h 32.2 km/h 68 % 0.0 mm 708 W/m2
11:35 13.7 °C 8.1 °C 1012.4 hPa WNW 8.0 km/h 32.2 km/h 69 % 0.0 mm 756 W/m2
11:40 13.9 °C 9.0 °C 1012.4 hPa West 6.4 km/h 27.4 km/h 72 % 0.0 mm 831 W/m2
11:45 14.4 °C 8.4 °C 1012.4 hPa West 19.3 km/h 27.4 km/h 67 % 0.0 mm 759 W/m2
11:50 14.3 °C 7.8 °C 1012.4 hPa WNW 11.3 km/h 33.8 km/h 65 % 0.0 mm 775 W/m2
11:55 14.4 °C 8.1 °C 1012.4 hPa WNW 22.5 km/h 37.0 km/h 66 % 0.0 mm 784 W/m2
12:00 14.5 °C 8.2 °C 1012.4 hPa NW 25.7 km/h 37.0 km/h 66 % 0.0 mm 912 W/m2
12:10 12.9 °C 7.2 °C 1012.8 hPa WNW 25.7 km/h 27.4 km/h 68 % 0.0 mm 204 W/m2
12:15 13.2 °C 8.1 °C 1012.8 hPa WSW 9.7 km/h 40.2 km/h 71 % 0.0 mm 128 W/m2
12:20 11.9 °C 7.3 °C 1012.8 hPa West 22.5 km/h 40.2 km/h 73 % 0.3 mm 134 W/m2
12:25 12.3 °C 8.6 °C 1012.8 hPa West 20.9 km/h 33.8 km/h 78 % 0.3 mm 860 W/m2
12:30 12.9 °C 8.6 °C 1012.8 hPa West 8.0 km/h 32.2 km/h 75 % 0.3 mm 629 W/m2
12:35 13.5 °C 8.1 °C 1012.8 hPa West 9.7 km/h 27.4 km/h 70 % 0.3 mm 745 W/m2
12:40 13.8 °C 8.6 °C 1012.8 hPa West 33.8 km/h 33.8 km/h 71 % 0.3 mm 865 W/m2
12:45 13.8 °C 8.2 °C 1012.8 hPa West 16.1 km/h 33.8 km/h 69 % 0.3 mm 638 W/m2
12:50 13.9 °C 8.7 °C 1012.8 hPa West 9.7 km/h 33.8 km/h 71 % 0.3 mm 854 W/m2
12:55 14.2 °C 8.3 °C 1012.8 hPa West 9.7 km/h 32.2 km/h 68 % 0.3 mm 976 W/m2
13:00 14.3 °C 9.6 °C 1013.1 hPa WNW 27.4 km/h 32.2 km/h 73 % 0.3 mm 1018 W/m2
13:05 14.3 °C 9.8 °C 1013.1 hPa WSW 11.3 km/h 35.4 km/h 74 % 0.3 mm 970 W/m2
13:10 14.6 °C 8.7 °C 1013.1 hPa WSW 19.3 km/h 40.2 km/h 68 % 0.3 mm 1007 W/m2
13:15 14.3 °C 8.9 °C 1013.1 hPa NW 20.9 km/h 40.2 km/h 70 % 0.3 mm 1049 W/m2
13:20 13.6 °C 8.2 °C 1013.1 hPa NW 9.7 km/h 37.0 km/h 70 % 0.0 mm 559 W/m2
13:25 13.1 °C 7.7 °C 1013.1 hPa WSW 25.7 km/h 37.0 km/h 70 % 0.0 mm 381 W/m2
13:30 13.1 °C 7.9 °C 1013.1 hPa WNW 16.1 km/h 30.6 km/h 71 % 0.0 mm 353 W/m2
13:35 13.5 °C 8.3 °C 1013.1 hPa WNW 9.7 km/h 33.8 km/h 71 % 0.0 mm 443 W/m2
13:40 13.4 °C 8.5 °C 1013.1 hPa WNW 14.5 km/h 33.8 km/h 72 % 0.0 mm 640 W/m2
13:45 14.1 °C 8.7 °C 1013.1 hPa SW 11.3 km/h 32.2 km/h 70 % 0.0 mm 773 W/m2
13:50 13.7 °C 8.5 °C 1013.1 hPa WSW 24.1 km/h 35.4 km/h 71 % 0.0 mm 589 W/m2
13:55 13.2 °C 8.0 °C 1013.1 hPa WNW 9.7 km/h 35.4 km/h 71 % 0.0 mm 461 W/m2
14:00 13.1 °C 8.3 °C 1013.1 hPa West 20.9 km/h 38.6 km/h 73 % 0.0 mm 441 W/m2
14:05 13.0 °C 8.5 °C 1013.1 hPa West 16.1 km/h 38.6 km/h 74 % 0.0 mm 503 W/m2
14:10 13.3 °C 8.3 °C 1013.1 hPa West 20.9 km/h 41.8 km/h 72 % 0.0 mm 772 W/m2
14:15 13.4 °C 8.7 °C 1013.1 hPa West 8.0 km/h 41.8 km/h 73 % 0.0 mm 979 W/m2
14:20 13.5 °C 8.3 °C 1013.1 hPa WSW 11.3 km/h 35.4 km/h 71 % 0.0 mm 642 W/m2
14:25 13.8 °C 9.3 °C 1013.1 hPa West 22.5 km/h 33.8 km/h 74 % 0.0 mm 791 W/m2
14:30 13.7 °C 9.0 °C 1013.1 hPa WNW 16.1 km/h 37.0 km/h 73 % 0.0 mm 640 W/m2
14:35 13.7 °C 8.9 °C 1013.1 hPa WSW 8.0 km/h 37.0 km/h 73 % 0.0 mm 701 W/m2
14:40 13.6 °C 9.0 °C 1013.1 hPa West 17.7 km/h 38.6 km/h 74 % 0.0 mm 578 W/m2
14:45 13.5 °C 8.5 °C 1013.1 hPa WNW 17.7 km/h 38.6 km/h 72 % 0.0 mm 394 W/m2
14:50 13.6 °C 8.6 °C 1013.1 hPa West 19.3 km/h 37.0 km/h 72 % 0.0 mm 508 W/m2
14:55 12.8 °C 8.1 °C 1013.1 hPa WSW 14.5 km/h 35.4 km/h 73 % 0.0 mm 362 W/m2
15:00 12.9 °C 9.0 °C 1013.1 hPa WSW 14.5 km/h 29.0 km/h 77 % 0.0 mm 671 W/m2
15:05 13.2 °C 8.8 °C 1013.4 hPa WSW 20.9 km/h 38.6 km/h 75 % 0.0 mm 341 W/m2
15:10 12.6 °C 8.6 °C 1013.1 hPa WSW 12.9 km/h 38.6 km/h 77 % 0.0 mm 454 W/m2
15:15 12.4 °C 9.1 °C 1013.4 hPa WSW 11.3 km/h 30.6 km/h 80 % 0.0 mm 264 W/m2
15:20 11.7 °C 8.7 °C 1013.4 hPa WSW 17.7 km/h 30.6 km/h 82 % 0.0 mm 195 W/m2
15:25 11.1 °C 9.0 °C 1013.1 hPa WSW 4.8 km/h 30.6 km/h 87 % 0.3 mm 264 W/m2
15:30 11.1 °C 9.5 °C 1013.1 hPa SW 9.7 km/h 25.7 km/h 90 % 0.3 mm 345 W/m2
15:35 11.3 °C 9.7 °C 1013.1 hPa SW 16.1 km/h 32.2 km/h 90 % 0.3 mm 501 W/m2
15:40 11.7 °C 9.7 °C 1013.1 hPa WSW 14.5 km/h 37.0 km/h 88 % 0.3 mm 540 W/m2
15:45 12.4 °C 10.5 °C 1013.1 hPa West 6.4 km/h 37.0 km/h 88 % 0.3 mm 1053 W/m2
15:50 12.3 °C 9.3 °C 1013.1 hPa West 17.7 km/h 33.8 km/h 82 % 0.3 mm 439 W/m2
15:55 12.0 °C 9.2 °C 1013.1 hPa WSW 32.2 km/h 33.8 km/h 83 % 0.3 mm 255 W/m2
16:00 11.7 °C 8.9 °C 1013.1 hPa WSW 20.9 km/h 37.0 km/h 83 % 0.3 mm 480 W/m2
16:05 12.2 °C 9.6 °C 1013.1 hPa WSW 8.0 km/h 37.0 km/h 84 % 0.3 mm 1139 W/m2
16:10 12.5 °C 9.3 °C 1013.1 hPa WSW 9.7 km/h 33.8 km/h 81 % 0.3 mm 589 W/m2
16:15 13.2 °C 9.8 °C 1013.1 hPa West 8.0 km/h 33.8 km/h 80 % 0.3 mm 687 W/m2
16:20 13.4 °C 9.8 °C 1012.8 hPa West 8.0 km/h 29.0 km/h 79 % 0.3 mm 628 W/m2
16:25 13.4 °C 9.8 °C 1012.8 hPa West 12.9 km/h 29.0 km/h 79 % 0.0 mm 986 W/m2
16:30 13.4 °C 9.6 °C 1012.8 hPa West 20.9 km/h 32.2 km/h 78 % 0.0 mm 717 W/m2
16:35 13.3 °C 9.6 °C 1012.8 hPa WSW 8.0 km/h 32.2 km/h 78 % 0.0 mm 661 W/m2
16:40 13.0 °C 9.4 °C 1012.8 hPa SW 14.5 km/h 30.6 km/h 79 % 0.0 mm 345 W/m2
16:45 13.3 °C 9.3 °C 1012.8 hPa West 17.7 km/h 30.6 km/h 77 % 0.0 mm 527 W/m2
16:50 13.2 °C 9.4 °C 1012.8 hPa WNW 11.3 km/h 30.6 km/h 78 % 0.0 mm 404 W/m2
16:55 13.1 °C 9.4 °C 1012.8 hPa WNW 16.1 km/h 30.6 km/h 78 % 0.0 mm 520 W/m2
17:00 13.3 °C 9.3 °C 1012.8 hPa West 16.1 km/h 30.6 km/h 77 % 0.0 mm 916 W/m2
17:05 13.5 °C 9.9 °C 1012.8 hPa WSW 11.3 km/h 29.0 km/h 79 % 0.0 mm 316 W/m2
17:10 13.5 °C 9.7 °C 1012.8 hPa WSW 16.1 km/h 27.4 km/h 78 % 0.0 mm 682 W/m2
17:15 13.9 °C 10.4 °C 1012.8 hPa West 16.1 km/h 27.4 km/h 79 % 0.0 mm 737 W/m2
17:20 13.5 °C 9.5 °C 1012.8 hPa Calm   32.2 km/h 77 % 0.0 mm 188 W/m2
17:25 12.9 °C 9.4 °C 1012.8 hPa WSW 11.3 km/h 32.2 km/h 79 % 0.0 mm 248 W/m2
17:30 12.8 °C 9.4 °C 1012.8 hPa NNW 3.2 km/h 22.5 km/h 80 % 0.0 mm 192 W/m2
17:35 12.5 °C 9.3 °C 1012.8 hPa SW 11.3 km/h 20.9 km/h 81 % 0.0 mm 200 W/m2
17:40 12.3 °C 9.3 °C 1012.8 hPa SW 3.2 km/h 22.5 km/h 82 % 0.0 mm 221 W/m2
17:45 12.5 °C 9.5 °C 1012.8 hPa WSW 11.3 km/h 22.5 km/h 82 % 0.0 mm 446 W/m2
17:50 13.1 °C 10.1 °C 1012.8 hPa WSW 17.7 km/h 29.0 km/h 82 % 0.0 mm 680 W/m2
17:55 12.9 °C 9.7 °C 1012.8 hPa WNW 12.9 km/h 30.6 km/h 81 % 0.0 mm 304 W/m2
18:00 12.7 °C 9.7 °C 1012.8 hPa WSW 11.3 km/h 30.6 km/h 82 % 0.0 mm 105 W/m2
18:05 12.2 °C 9.4 °C 1012.8 hPa WSW 16.1 km/h 30.6 km/h 83 % 0.0 mm 83 W/m2
18:10 11.9 °C 9.3 °C 1012.8 hPa WSW 19.3 km/h 30.6 km/h 84 % 0.0 mm 146 W/m2
18:15 12.0 °C 9.4 °C 1012.8 hPa SSW 4.8 km/h 27.4 km/h 84 % 0.0 mm 207 W/m2
18:20 12.3 °C 9.7 °C 1012.8 hPa WSW 16.1 km/h 27.4 km/h 84 % 0.0 mm 135 W/m2
18:25 12.1 °C 9.4 °C 1012.8 hPa SSE 12.9 km/h 25.7 km/h 84 % 0.0 mm 135 W/m2
18:30 12.0 °C 9.6 °C 1013.1 hPa SSW 11.3 km/h 22.5 km/h 85 % 0.0 mm 192 W/m2
18:35 12.0 °C 9.4 °C 1012.8 hPa WSW 12.9 km/h 24.1 km/h 84 % 0.0 mm 118 W/m2
18:40 11.9 °C 9.4 °C 1012.8 hPa West 12.9 km/h 24.1 km/h 85 % 0.0 mm 104 W/m2
18:45 11.7 °C 9.3 °C 1012.8 hPa SW 19.3 km/h 27.4 km/h 85 % 0.0 mm 144 W/m2
18:50 11.8 °C 9.5 °C 1012.8 hPa South 1.6 km/h 27.4 km/h 86 % 0.0 mm 95 W/m2
18:55 11.7 °C 9.5 °C 1012.8 hPa SW 12.9 km/h 24.1 km/h 86 % 0.0 mm 74 W/m2
19:00 11.5 °C 9.4 °C 1012.8 hPa SW 9.7 km/h 20.9 km/h 87 % 0.0 mm 98 W/m2
19:05 11.3 °C 9.6 °C 1012.8 hPa WSW 4.8 km/h 19.3 km/h 89 % 0.0 mm 118 W/m2
19:10 11.3 °C 9.7 °C 1012.8 hPa South 9.7 km/h 19.3 km/h 90 % 0.0 mm 116 W/m2
19:15 11.3 °C 9.6 °C 1012.8 hPa West 11.3 km/h 20.9 km/h 89 % 0.0 mm 125 W/m2
19:20 11.3 °C 9.6 °C 1012.8 hPa West 11.3 km/h 20.9 km/h 89 % 0.0 mm 139 W/m2
19:25 11.4 °C 9.6 °C 1012.8 hPa SW 11.3 km/h 20.9 km/h 89 % 0.0 mm 127 W/m2
19:30 11.4 °C 9.5 °C 1012.8 hPa SSW 1.6 km/h 20.9 km/h 88 % 0.0 mm 151 W/m2
19:35 11.5 °C 9.6 °C 1012.8 hPa West 12.9 km/h 19.3 km/h 88 % 0.0 mm 105 W/m2
19:40 11.6 °C 9.6 °C 1012.8 hPa WSW 4.8 km/h 17.7 km/h 88 % 0.0 mm 111 W/m2
19:45 11.7 °C 9.7 °C 1012.8 hPa West 8.0 km/h 20.9 km/h 88 % 0.0 mm 239 W/m2
19:50 11.8 °C 9.9 °C 1012.8 hPa West 16.1 km/h 27.4 km/h 88 % 0.0 mm 176 W/m2
19:55 11.7 °C 9.6 °C 1012.8 hPa SW 8.0 km/h 27.4 km/h 87 % 0.0 mm 76 W/m2
20:00 11.6 °C 9.7 °C 1012.8 hPa SW 9.7 km/h 17.7 km/h 88 % 0.0 mm 113 W/m2
20:05 11.5 °C 9.6 °C 1012.8 hPa SSW 8.0 km/h 20.9 km/h 88 % 0.0 mm 58 W/m2
20:10 11.4 °C 9.7 °C 1012.8 hPa SSW 6.4 km/h 20.9 km/h 89 % 0.0 mm 63 W/m2
20:15 11.5 °C 9.7 °C 1012.8 hPa WSW 6.4 km/h 20.9 km/h 89 % 0.0 mm 95 W/m2
20:20 11.6 °C 9.6 °C 1012.8 hPa WSW 12.9 km/h 20.9 km/h 88 % 0.0 mm 33 W/m2
20:25 11.4 °C 9.5 °C 1012.8 hPa WSW 14.5 km/h 16.1 km/h 88 % 0.0 mm 25 W/m2
20:30 11.2 °C 9.4 °C 1012.8 hPa WSW 8.0 km/h 16.1 km/h 89 % 0.0 mm 23 W/m2
20:35 11.2 °C 9.6 °C 1012.8 hPa WSW 4.8 km/h 16.1 km/h 90 % 0.0 mm 35 W/m2
20:40 11.2 °C 9.6 °C 1013.1 hPa SW 6.4 km/h 14.5 km/h 90 % 0.0 mm 37 W/m2
20:45 11.3 °C 9.7 °C 1013.1 hPa SW 4.8 km/h 14.5 km/h 90 % 0.0 mm 28 W/m2
20:50 11.3 °C 9.7 °C 1012.8 hPa WSW 4.8 km/h 19.3 km/h 90 % 0.0 mm 47 W/m2
20:55 11.3 °C 9.7 °C 1013.1 hPa West 9.7 km/h 24.1 km/h 90 % 0.0 mm 30 W/m2
21:00 11.3 °C 9.5 °C 1013.1 hPa Calm   24.1 km/h 89 % 0.0 mm 23 W/m2
21:05 11.2 °C 9.3 °C 1013.1 hPa West 9.7 km/h 22.5 km/h 88 % 0.0 mm 18 W/m2
21:10 11.2 °C 9.4 °C 1013.1 hPa WSW 9.7 km/h 20.9 km/h 89 % 0.0 mm 11 W/m2
21:15 11.2 °C 9.3 °C 1013.1 hPa West 12.9 km/h 20.9 km/h 88 % 0.0 mm 5 W/m2
21:20 11.1 °C 9.1 °C 1013.1 hPa West 4.8 km/h 19.3 km/h 88 % 0.0 mm 0 W/m2
21:25 11.1 °C 9.1 °C 1013.1 hPa WSW 14.5 km/h 19.3 km/h 88 % 0.0 mm 0 W/m2
21:30 11.1 °C 9.4 °C 1013.1 hPa West 9.7 km/h 17.7 km/h 89 % 0.0 mm 0 W/m2
21:35 11.2 °C 9.6 °C 1013.1 hPa WSW 4.8 km/h 17.7 km/h 90 % 0.0 mm 0 W/m2
21:40 11.2 °C 9.4 °C 1013.1 hPa WNW 11.3 km/h 20.9 km/h 89 % 0.0 mm 0 W/m2
21:45 11.1 °C 9.4 °C 1013.1 hPa NW 3.2 km/h 20.9 km/h 89 % 0.0 mm 0 W/m2
21:50 11.1 °C 9.1 °C 1013.4 hPa West 4.8 km/h 20.9 km/h 88 % 0.0 mm 0 W/m2
21:55 11.0 °C 9.1 °C 1013.4 hPa WNW 14.5 km/h 19.3 km/h 88 % 0.0 mm 0 W/m2
22:00 11.0 °C 8.9 °C 1013.1 hPa SW 4.8 km/h 19.3 km/h 87 % 0.0 mm 0 W/m2
22:05 11.0 °C 8.9 °C 1013.1 hPa West 11.3 km/h 17.7 km/h 87 % 0.0 mm 0 W/m2
22:10 10.9 °C 8.9 °C 1013.1 hPa West 11.3 km/h 17.7 km/h 87 % 0.0 mm 0 W/m2
22:15 11.0 °C 9.1 °C 1013.1 hPa West 4.8 km/h 17.7 km/h 88 % 0.0 mm 0 W/m2
22:20 10.9 °C 9.0 °C 1013.1 hPa WNW 4.8 km/h 17.7 km/h 88 % 0.0 mm 0 W/m2
22:25 10.9 °C 9.0 °C 1013.1 hPa WNW 6.4 km/h 22.5 km/h 88 % 0.0 mm 0 W/m2
22:30 10.9 °C 9.0 °C 1013.1 hPa NNW 12.9 km/h 22.5 km/h 88 % 0.0 mm 0 W/m2
22:35 11.0 °C 9.3 °C 1013.4 hPa WNW 14.5 km/h 20.9 km/h 89 % 0.0 mm 0 W/m2
22:40 10.9 °C 9.0 °C 1013.4 hPa West 12.9 km/h 20.9 km/h 88 % 0.0 mm 0 W/m2
22:45 10.9 °C 8.8 °C 1013.4 hPa West 4.8 km/h 20.9 km/h 87 % 0.0 mm 0 W/m2
22:50 10.7 °C 8.6 °C 1013.4 hPa NW 9.7 km/h 19.3 km/h 87 % 0.0 mm 0 W/m2
22:55 10.7 °C 8.6 °C 1013.4 hPa West 11.3 km/h 19.3 km/h 87 % 0.0 mm 0 W/m2
23:00 10.7 °C 8.8 °C 1013.4 hPa WNW 4.8 km/h 19.3 km/h 88 % 0.0 mm 0 W/m2
23:05 10.7 °C 8.6 °C 1013.4 hPa West 6.4 km/h 19.3 km/h 87 % 0.0 mm 0 W/m2
23:10 10.8 °C 8.7 °C 1013.4 hPa NW 9.7 km/h 19.3 km/h 87 % 0.0 mm 0 W/m2
23:15 10.9 °C 8.8 °C 1013.4 hPa West 11.3 km/h 17.7 km/h 87 % 0.0 mm 0 W/m2
23:20 10.9 °C 8.9 °C 1013.4 hPa West 6.4 km/h 17.7 km/h 87 % 0.0 mm 0 W/m2
23:25 11.0 °C 8.9 °C 1013.4 hPa WNW 14.5 km/h 22.5 km/h 87 % 0.0 mm 0 W/m2
23:30 11.1 °C 8.8 °C 1013.4 hPa West 11.3 km/h 25.7 km/h 86 % 0.0 mm 0 W/m2
23:35 11.1 °C 8.7 °C 1013.4 hPa WNW 11.3 km/h 25.7 km/h 85 % 0.0 mm 0 W/m2
23:40 11.1 °C 8.7 °C 1013.4 hPa NW 8.0 km/h 24.1 km/h 85 % 0.0 mm 0 W/m2
23:45 11.1 °C 8.6 °C 1013.4 hPa WNW 20.9 km/h 20.9 km/h 85 % 0.0 mm 0 W/m2
23:50 11.1 °C 8.6 °C 1013.8 hPa WNW 14.5 km/h 20.9 km/h 85 % 0.0 mm 0 W/m2
23:55 11.1 °C 8.7 °C 1013.8 hPa West 4.8 km/h 20.9 km/h 85 % 0.0 mm 0 W/m2
Avec l'autorisation de Weather Underground - 1.75 mb